sensor_id;sensor_type;location;lat;lon;timestamp;pressure;altitude;pressure_sealevel;temperature;humidity
30730;BME280;17476;48.458;7.928;2023-02-18T00:01:33;101111.81;;;12.09;94.34
30730;BME280;17476;48.458;7.928;2023-02-18T00:04:00;101112.66;;;12.09;95.12
30730;BME280;17476;48.458;7.928;2023-02-18T00:06:34;101106.31;;;12.02;95.55
30730;BME280;17476;48.458;7.928;2023-02-18T00:09:02;101089.94;;;12.00;95.57
30730;BME280;17476;48.458;7.928;2023-02-18T00:11:31;101093.78;;;11.96;96.10
30730;BME280;17476;48.458;7.928;2023-02-18T00:14:01;101107.19;;;11.93;96.55
30730;BME280;17476;48.458;7.928;2023-02-18T00:16:30;101100.69;;;11.97;96.12
30730;BME280;17476;48.458;7.928;2023-02-18T00:19:05;101090.78;;;11.91;96.65
30730;BME280;17476;48.458;7.928;2023-02-18T00:21:34;101107.47;;;11.90;97.27
30730;BME280;17476;48.458;7.928;2023-02-18T00:24:00;101095.50;;;11.87;96.62
30730;BME280;17476;48.458;7.928;2023-02-18T00:26:26;101098.75;;;11.99;96.31
30730;BME280;17476;48.458;7.928;2023-02-18T00:28:53;101087.31;;;11.90;97.05
30730;BME280;17476;48.458;7.928;2023-02-18T00:31:29;101095.19;;;11.90;96.57
30730;BME280;17476;48.458;7.928;2023-02-18T00:33:57;101101.25;;;12.00;96.17
30730;BME280;17476;48.458;7.928;2023-02-18T00:36:24;101108.03;;;11.93;96.61
30730;BME280;17476;48.458;7.928;2023-02-18T00:38:59;101104.69;;;11.91;97.14
30730;BME280;17476;48.458;7.928;2023-02-18T00:41:27;101098.50;;;11.92;96.57
30730;BME280;17476;48.458;7.928;2023-02-18T00:43:53;101084.69;;;11.90;96.57
30730;BME280;17476;48.458;7.928;2023-02-18T00:46:21;101085.81;;;11.78;97.52
30730;BME280;17476;48.458;7.928;2023-02-18T00:48:47;101080.75;;;11.86;97.62
30730;BME280;17476;48.458;7.928;2023-02-18T00:51:13;101072.88;;;11.86;97.21
30730;BME280;17476;48.458;7.928;2023-02-18T00:53:39;101061.41;;;11.87;97.26
30730;BME280;17476;48.458;7.928;2023-02-18T00:56:06;101082.66;;;11.84;97.43
30730;BME280;17476;48.458;7.928;2023-02-18T00:58:34;101085.81;;;11.88;97.39
30730;BME280;17476;48.458;7.928;2023-02-18T01:01:00;101075.75;;;11.83;97.87
30730;BME280;17476;48.458;7.928;2023-02-18T01:03:26;101078.22;;;11.85;97.83
30730;BME280;17476;48.458;7.928;2023-02-18T01:05:52;101073.56;;;11.79;97.97
30730;BME280;17476;48.458;7.928;2023-02-18T01:08:20;101077.72;;;11.81;97.57
30730;BME280;17476;48.458;7.928;2023-02-18T01:10:49;101074.13;;;11.82;97.71
30730;BME280;17476;48.458;7.928;2023-02-18T01:13:17;101078.38;;;11.83;97.91
30730;BME280;17476;48.458;7.928;2023-02-18T01:15:43;101081.28;;;11.80;97.78
30730;BME280;17476;48.458;7.928;2023-02-18T01:18:11;101082.81;;;11.73;97.92
30730;BME280;17476;48.458;7.928;2023-02-18T01:20:41;101077.84;;;11.70;98.87
30730;BME280;17476;48.458;7.928;2023-02-18T01:23:08;101066.13;;;11.74;98.53
30730;BME280;17476;48.458;7.928;2023-02-18T01:25:35;101067.78;;;11.75;98.06
30730;BME280;17476;48.458;7.928;2023-02-18T01:28:02;101069.16;;;11.79;98.36
30730;BME280;17476;48.458;7.928;2023-02-18T01:30:28;101068.88;;;11.82;97.86
30730;BME280;17476;48.458;7.928;2023-02-18T01:32:56;101066.41;;;11.81;98.04
30730;BME280;17476;48.458;7.928;2023-02-18T01:35:22;101063.63;;;11.82;97.72
30730;BME280;17476;48.458;7.928;2023-02-18T01:37:49;101053.31;;;11.81;98.41
30730;BME280;17476;48.458;7.928;2023-02-18T01:40:22;101054.13;;;11.81;98.25
30730;BME280;17476;48.458;7.928;2023-02-18T01:42:48;101055.63;;;11.74;98.55
30730;BME280;17476;48.458;7.928;2023-02-18T01:48:24;101065.69;;;11.79;98.38
30730;BME280;17476;48.458;7.928;2023-02-18T01:51:22;101058.41;;;11.72;98.66
30730;BME280;17476;48.458;7.928;2023-02-18T01:54:04;101062.22;;;11.78;98.34
30730;BME280;17476;48.458;7.928;2023-02-18T01:59:31;101059.22;;;11.73;99.15
30730;BME280;17476;48.458;7.928;2023-02-18T02:01:59;101065.31;;;11.64;99.63
30730;BME280;17476;48.458;7.928;2023-02-18T02:04:25;101058.00;;;11.67;99.68
30730;BME280;17476;48.458;7.928;2023-02-18T02:06:51;101056.34;;;11.66;100.00
30730;BME280;17476;48.458;7.928;2023-02-18T02:09:19;101067.09;;;11.63;99.66
30730;BME280;17476;48.458;7.928;2023-02-18T02:18:04;101049.13;;;11.78;98.99
30730;BME280;17476;48.458;7.928;2023-02-18T02:24:07;101046.41;;;11.70;98.95
30730;BME280;17476;48.458;7.928;2023-02-18T02:27:18;101038.53;;;11.70;99.25
30730;BME280;17476;48.458;7.928;2023-02-18T02:30:15;101038.13;;;11.65;99.45
30730;BME280;17476;48.458;7.928;2023-02-18T02:38:28;101037.88;;;11.68;99.17
30730;BME280;17476;48.458;7.928;2023-02-18T02:41:17;101031.16;;;11.56;99.12
30730;BME280;17476;48.458;7.928;2023-02-18T02:46:47;101034.44;;;11.58;99.57
30730;BME280;17476;48.458;7.928;2023-02-18T02:52:14;101032.13;;;11.55;99.79
30730;BME280;17476;48.458;7.928;2023-02-18T02:54:42;101032.41;;;11.52;100.00
30730;BME280;17476;48.458;7.928;2023-02-18T02:59:47;101022.72;;;11.62;99.76
30730;BME280;17476;48.458;7.928;2023-02-18T03:02:43;101028.88;;;11.70;99.69
30730;BME280;17476;48.458;7.928;2023-02-18T03:11:08;101008.38;;;11.66;99.68
30730;BME280;17476;48.458;7.928;2023-02-18T03:13:52;100998.81;;;11.74;99.60
30730;BME280;17476;48.458;7.928;2023-02-18T03:16:44;101003.38;;;11.72;99.12
30730;BME280;17476;48.458;7.928;2023-02-18T03:19:32;101005.84;;;11.74;99.29
30730;BME280;17476;48.458;7.928;2023-02-18T03:22:22;100997.06;;;11.65;99.98
30730;BME280;17476;48.458;7.928;2023-02-18T03:24:53;101005.75;;;11.66;99.85
30730;BME280;17476;48.458;7.928;2023-02-18T03:27:23;100997.06;;;11.65;100.00
30730;BME280;17476;48.458;7.928;2023-02-18T03:29:56;100994.81;;;11.70;99.95
30730;BME280;17476;48.458;7.928;2023-02-18T03:32:25;100987.19;;;11.77;99.37
30730;BME280;17476;48.458;7.928;2023-02-18T03:35:05;100992.44;;;11.77;99.42
30730;BME280;17476;48.458;7.928;2023-02-18T03:37:37;100988.47;;;11.73;99.02
30730;BME280;17476;48.458;7.928;2023-02-18T03:40:06;100978.78;;;11.83;98.85
30730;BME280;17476;48.458;7.928;2023-02-18T03:42:33;100980.44;;;11.84;98.57
30730;BME280;17476;48.458;7.928;2023-02-18T03:44:59;100974.59;;;11.90;99.12
30730;BME280;17476;48.458;7.928;2023-02-18T03:47:25;100980.84;;;11.80;98.83
30730;BME280;17476;48.458;7.928;2023-02-18T03:49:51;100965.25;;;11.78;99.58
30730;BME280;17476;48.458;7.928;2023-02-18T03:52:17;100965.56;;;11.75;100.00
30730;BME280;17476;48.458;7.928;2023-02-18T03:54:43;100959.34;;;11.76;99.03
30730;BME280;17476;48.458;7.928;2023-02-18T03:57:08;100963.88;;;11.84;99.27
30730;BME280;17476;48.458;7.928;2023-02-18T03:59:34;100966.69;;;11.72;99.14
30730;BME280;17476;48.458;7.928;2023-02-18T04:02:00;100958.94;;;11.71;99.24
30730;BME280;17476;48.458;7.928;2023-02-18T04:04:28;100963.34;;;11.80;99.23
30730;BME280;17476;48.458;7.928;2023-02-18T04:06:54;100960.00;;;11.78;99.27
30730;BME280;17476;48.458;7.928;2023-02-18T04:09:20;100961.97;;;11.76;99.57
30730;BME280;17476;48.458;7.928;2023-02-18T04:11:46;100967.63;;;11.81;99.23
30730;BME280;17476;48.458;7.928;2023-02-18T04:14:13;100969.69;;;11.77;99.23
30730;BME280;17476;48.458;7.928;2023-02-18T04:16:40;100968.72;;;11.79;99.31
30730;BME280;17476;48.458;7.928;2023-02-18T04:19:06;100972.06;;;11.81;99.48
30730;BME280;17476;48.458;7.928;2023-02-18T04:21:33;100973.81;;;11.80;99.53
30730;BME280;17476;48.458;7.928;2023-02-18T04:23:59;100979.34;;;11.77;99.29
30730;BME280;17476;48.458;7.928;2023-02-18T04:26:26;100975.22;;;11.74;99.47
30730;BME280;17476;48.458;7.928;2023-02-18T04:28:52;100974.22;;;11.85;99.16
30730;BME280;17476;48.458;7.928;2023-02-18T04:31:17;100980.97;;;11.78;99.70
30730;BME280;17476;48.458;7.928;2023-02-18T04:33:43;100974.91;;;11.77;99.40
30730;BME280;17476;48.458;7.928;2023-02-18T04:36:09;100981.84;;;11.79;99.41
30730;BME280;17476;48.458;7.928;2023-02-18T04:38:35;100977.81;;;11.84;99.12
30730;BME280;17476;48.458;7.928;2023-02-18T04:41:01;100980.09;;;11.97;98.95
30730;BME280;17476;48.458;7.928;2023-02-18T04:43:27;100979.84;;;11.90;98.73
30730;BME280;17476;48.458;7.928;2023-02-18T04:45:52;100979.47;;;11.85;99.33
30730;BME280;17476;48.458;7.928;2023-02-18T04:48:18;100978.25;;;11.80;98.65
30730;BME280;17476;48.458;7.928;2023-02-18T04:50:45;100976.59;;;11.79;99.13
30730;BME280;17476;48.458;7.928;2023-02-18T04:53:11;100975.19;;;11.84;99.32
30730;BME280;17476;48.458;7.928;2023-02-18T04:55:37;100970.78;;;11.85;99.26
30730;BME280;17476;48.458;7.928;2023-02-18T04:58:03;100968.84;;;11.77;99.50
30730;BME280;17476;48.458;7.928;2023-02-18T05:00:28;100969.69;;;11.77;99.37
30730;BME280;17476;48.458;7.928;2023-02-18T05:02:54;100973.13;;;11.78;100.00
30730;BME280;17476;48.458;7.928;2023-02-18T05:05:20;100967.50;;;11.73;100.00
30730;BME280;17476;48.458;7.928;2023-02-18T05:07:46;100962.78;;;11.76;100.00
30730;BME280;17476;48.458;7.928;2023-02-18T05:10:16;100966.13;;;11.79;99.29
30730;BME280;17476;48.458;7.928;2023-02-18T05:12:42;100967.75;;;11.80;99.23
30730;BME280;17476;48.458;7.928;2023-02-18T05:15:09;100967.75;;;11.80;99.34
30730;BME280;17476;48.458;7.928;2023-02-18T05:17:35;100954.53;;;11.81;99.14
30730;BME280;17476;48.458;7.928;2023-02-18T05:20:01;100953.72;;;11.81;98.99
30730;BME280;17476;48.458;7.928;2023-02-18T05:22:27;100953.56;;;11.82;98.79
30730;BME280;17476;48.458;7.928;2023-02-18T05:24:53;100954.53;;;11.81;99.01
30730;BME280;17476;48.458;7.928;2023-02-18T05:27:19;100949.69;;;11.76;98.95
30730;BME280;17476;48.458;7.928;2023-02-18T05:29:44;100949.28;;;11.81;99.25
30730;BME280;17476;48.458;7.928;2023-02-18T05:32:10;100950.94;;;11.82;99.24
30730;BME280;17476;48.458;7.928;2023-02-18T05:34:36;100949.53;;;11.88;98.17
30730;BME280;17476;48.458;7.928;2023-02-18T05:37:02;100945.09;;;11.88;98.94
30730;BME280;17476;48.458;7.928;2023-02-18T05:39:28;100936.84;;;11.83;99.34
30730;BME280;17476;48.458;7.928;2023-02-18T05:41:53;100936.19;;;11.81;98.73
30730;BME280;17476;48.458;7.928;2023-02-18T05:44:19;100945.41;;;11.75;99.11
30730;BME280;17476;48.458;7.928;2023-02-18T05:47:00;100942.25;;;11.82;99.19
30730;BME280;17476;48.458;7.928;2023-02-18T05:49:28;100938.22;;;11.87;97.87
30730;BME280;17476;48.458;7.928;2023-02-18T05:51:54;100937.09;;;11.90;98.23
30730;BME280;17476;48.458;7.928;2023-02-18T05:54:20;100935.44;;;11.89;98.26
30730;BME280;17476;48.458;7.928;2023-02-18T05:56:46;100936.41;;;11.88;98.41
30730;BME280;17476;48.458;7.928;2023-02-18T05:59:12;100929.06;;;11.91;97.79
30730;BME280;17476;48.458;7.928;2023-02-18T06:01:38;100924.81;;;11.90;97.39
30730;BME280;17476;48.458;7.928;2023-02-18T06:04:04;100925.53;;;11.83;97.67
30730;BME280;17476;48.458;7.928;2023-02-18T06:06:31;100935.75;;;11.86;97.92
30730;BME280;17476;48.458;7.928;2023-02-18T06:08:56;100944.72;;;11.83;97.79
30730;BME280;17476;48.458;7.928;2023-02-18T06:11:22;100938.22;;;11.87;97.20
30730;BME280;17476;48.458;7.928;2023-02-18T06:13:48;100941.06;;;11.94;97.09
30730;BME280;17476;48.458;7.928;2023-02-18T06:16:14;100942.34;;;11.90;96.88
30730;BME280;17476;48.458;7.928;2023-02-18T06:18:40;100932.00;;;11.88;97.15
30730;BME280;17476;48.458;7.928;2023-02-18T06:21:06;100935.13;;;11.92;96.70
30730;BME280;17476;48.458;7.928;2023-02-18T06:23:32;100932.63;;;12.00;96.27
30730;BME280;17476;48.458;7.928;2023-02-18T06:25:58;100930.13;;;11.98;96.44
30730;BME280;17476;48.458;7.928;2023-02-18T06:28:23;100931.94;;;11.98;96.37
30730;BME280;17476;48.458;7.928;2023-02-18T06:30:49;100928.63;;;11.96;96.01
30730;BME280;17476;48.458;7.928;2023-02-18T06:33:15;100930.13;;;11.98;95.54
30730;BME280;17476;48.458;7.928;2023-02-18T06:35:50;100929.19;;;11.99;95.45
30730;BME280;17476;48.458;7.928;2023-02-18T06:38:16;100937.28;;;12.06;95.22
30730;BME280;17476;48.458;7.928;2023-02-18T06:40:45;100933.97;;;12.04;95.09
30730;BME280;17476;48.458;7.928;2023-02-18T06:43:12;100938.75;;;12.09;94.49
30730;BME280;17476;48.458;7.928;2023-02-18T06:45:38;100936.00;;;12.10;94.14
30730;BME280;17476;48.458;7.928;2023-02-18T06:48:04;100937.28;;;12.06;94.58
30730;BME280;17476;48.458;7.928;2023-02-18T06:50:30;100944.28;;;12.06;94.66
30730;BME280;17476;48.458;7.928;2023-02-18T06:52:56;100942.81;;;12.21;93.38
30730;BME280;17476;48.458;7.928;2023-02-18T06:55:24;100939.38;;;12.20;93.53
30730;BME280;17476;48.458;7.928;2023-02-18T06:57:50;100951.78;;;12.18;93.54
30730;BME280;17476;48.458;7.928;2023-02-18T07:00:17;100951.28;;;12.15;93.89
30730;BME280;17476;48.458;7.928;2023-02-18T07:02:43;100943.50;;;12.23;93.60
30730;BME280;17476;48.458;7.928;2023-02-18T07:05:08;100932.69;;;12.26;93.83
30730;BME280;17476;48.458;7.928;2023-02-18T07:07:34;100938.41;;;12.21;93.50
30730;BME280;17476;48.458;7.928;2023-02-18T07:10:00;100938.84;;;12.17;93.59
30730;BME280;17476;48.458;7.928;2023-02-18T07:12:26;100949.28;;;12.26;93.26
30730;BME280;17476;48.458;7.928;2023-02-18T07:14:52;100951.91;;;12.26;93.41
30730;BME280;17476;48.458;7.928;2023-02-18T07:17:18;100951.53;;;12.21;93.62
30730;BME280;17476;48.458;7.928;2023-02-18T07:19:44;100952.50;;;12.20;93.73
30730;BME280;17476;48.458;7.928;2023-02-18T07:22:10;100952.34;;;12.22;94.12
30730;BME280;17476;48.458;7.928;2023-02-18T07:24:36;100945.13;;;12.24;93.76
30730;BME280;17476;48.458;7.928;2023-02-18T07:27:02;100947.31;;;12.28;93.69
30730;BME280;17476;48.458;7.928;2023-02-18T07:29:27;100948.97;;;12.29;94.22
30730;BME280;17476;48.458;7.928;2023-02-18T07:31:53;100948.16;;;12.29;94.57
30730;BME280;17476;48.458;7.928;2023-02-18T07:34:20;100950.53;;;12.22;95.25
30730;BME280;17476;48.458;7.928;2023-02-18T07:36:45;100958.84;;;12.18;95.18
30730;BME280;17476;48.458;7.928;2023-02-18T07:39:11;100960.63;;;12.17;95.68
30730;BME280;17476;48.458;7.928;2023-02-18T07:41:37;100962.69;;;12.23;95.15
30730;BME280;17476;48.458;7.928;2023-02-18T07:44:03;100965.13;;;12.25;94.88
30730;BME280;17476;48.458;7.928;2023-02-18T07:46:29;100963.81;;;12.21;95.40
30730;BME280;17476;48.458;7.928;2023-02-18T07:48:57;100959.22;;;12.23;95.40
30730;BME280;17476;48.458;7.928;2023-02-18T07:51:23;100960.28;;;12.30;95.17
30730;BME280;17476;48.458;7.928;2023-02-18T07:53:49;100950.38;;;12.24;95.23
30730;BME280;17476;48.458;7.928;2023-02-18T07:56:15;100945.38;;;12.30;95.11
30730;BME280;17476;48.458;7.928;2023-02-18T07:58:41;100943.19;;;12.26;95.35
30730;BME280;17476;48.458;7.928;2023-02-18T08:01:11;100934.06;;;12.30;94.85
30730;BME280;17476;48.458;7.928;2023-02-18T08:03:39;100940.78;;;12.33;95.15
30730;BME280;17476;48.458;7.928;2023-02-18T08:06:06;100939.00;;;12.33;94.72
30730;BME280;17476;48.458;7.928;2023-02-18T08:08:33;100943.28;;;12.34;94.79
30730;BME280;17476;48.458;7.928;2023-02-18T08:11:01;100940.19;;;12.39;95.04
30730;BME280;17476;48.458;7.928;2023-02-18T08:13:29;100943.28;;;12.34;95.55
30730;BME280;17476;48.458;7.928;2023-02-18T08:15:56;100944.59;;;12.38;95.23
30730;BME280;17476;48.458;7.928;2023-02-18T08:18:23;100942.47;;;12.34;95.75
30730;BME280;17476;48.458;7.928;2023-02-18T08:20:50;100951.44;;;12.31;95.94
30730;BME280;17476;48.458;7.928;2023-02-18T08:23:19;100950.63;;;12.30;96.29
30730;BME280;17476;48.458;7.928;2023-02-18T08:25:49;100950.84;;;12.37;95.81
30730;BME280;17476;48.458;7.928;2023-02-18T08:28:17;100949.56;;;12.41;95.66
30730;BME280;17476;48.458;7.928;2023-02-18T08:30:47;100939.25;;;12.40;95.60
30730;BME280;17476;48.458;7.928;2023-02-18T08:33:14;100948.66;;;12.50;94.78
30730;BME280;17476;48.458;7.928;2023-02-18T08:35:40;100949.63;;;12.49;94.67
30730;BME280;17476;48.458;7.928;2023-02-18T08:38:06;100953.75;;;12.52;94.62
30730;BME280;17476;48.458;7.928;2023-02-18T08:40:32;100946.03;;;12.50;94.47
30730;BME280;17476;48.458;7.928;2023-02-18T08:42:58;100954.56;;;12.52;94.19
30730;BME280;17476;48.458;7.928;2023-02-18T08:45:24;100958.41;;;12.58;94.20
30730;BME280;17476;48.458;7.928;2023-02-18T08:47:50;100949.63;;;12.67;93.02
30730;BME280;17476;48.458;7.928;2023-02-18T08:50:16;100961.84;;;12.76;92.56
30730;BME280;17476;48.458;7.928;2023-02-18T08:52:42;100958.53;;;12.74;92.39
30730;BME280;17476;48.458;7.928;2023-02-18T08:55:08;100962.97;;;12.74;92.20
30730;BME280;17476;48.458;7.928;2023-02-18T08:57:33;100964.63;;;12.75;92.36
30730;BME280;17476;48.458;7.928;2023-02-18T08:59:59;100961.84;;;12.76;92.53
30730;BME280;17476;48.458;7.928;2023-02-18T09:02:25;100976.31;;;12.80;92.48
30730;BME280;17476;48.458;7.928;2023-02-18T09:04:53;100958.75;;;12.81;92.40
30730;BME280;17476;48.458;7.928;2023-02-18T09:07:19;100964.47;;;12.76;92.38
30730;BME280;17476;48.458;7.928;2023-02-18T09:09:45;100965.66;;;12.82;92.09
30730;BME280;17476;48.458;7.928;2023-02-18T09:12:11;100949.28;;;12.88;91.52
30730;BME280;17476;48.458;7.928;2023-02-18T09:14:36;100940.28;;;12.91;91.75
30730;BME280;17476;48.458;7.928;2023-02-18T09:17:03;100931.91;;;12.87;91.21
30730;BME280;17476;48.458;7.928;2023-02-18T09:19:29;100932.59;;;12.97;90.64
30730;BME280;17476;48.458;7.928;2023-02-18T09:21:54;100927.19;;;12.99;90.25
30730;BME280;17476;48.458;7.928;2023-02-18T09:24:22;100916.47;;;12.92;91.04
30730;BME280;17476;48.458;7.928;2023-02-18T09:26:50;100921.94;;;12.99;89.72
30730;BME280;17476;48.458;7.928;2023-02-18T09:29:16;100916.53;;;13.00;89.56
30730;BME280;17476;48.458;7.928;2023-02-18T09:31:44;100914.88;;;12.99;90.04
30730;BME280;17476;48.458;7.928;2023-02-18T09:34:10;100918.53;;;13.06;90.70
30730;BME280;17476;48.458;7.928;2023-02-18T09:36:37;100920.22;;;13.07;89.45
30730;BME280;17476;48.458;7.928;2023-02-18T09:39:04;100916.09;;;13.13;88.84
30730;BME280;17476;48.458;7.928;2023-02-18T09:41:47;100914.66;;;13.19;88.29
30730;BME280;17476;48.458;7.928;2023-02-18T09:47:46;100916.72;;;13.33;86.48
30730;BME280;17476;48.458;7.928;2023-02-18T09:50:19;100907.56;;;13.37;85.88
30730;BME280;17476;48.458;7.928;2023-02-18T09:52:45;100915.44;;;13.37;85.81
30730;BME280;17476;48.458;7.928;2023-02-18T09:55:35;100912.81;;;13.37;86.11
30730;BME280;17476;48.458;7.928;2023-02-18T09:58:12;100905.59;;;13.39;86.34
30730;BME280;17476;48.458;7.928;2023-02-18T10:00:46;100915.09;;;13.32;86.65
30730;BME280;17476;48.458;7.928;2023-02-18T10:03:23;100910.66;;;13.32;85.99
30730;BME280;17476;48.458;7.928;2023-02-18T10:06:06;100899.22;;;13.42;86.04
30730;BME280;17476;48.458;7.928;2023-02-18T10:08:50;100903.47;;;13.34;86.67
30730;BME280;17476;48.458;7.928;2023-02-18T10:11:28;100903.13;;;13.37;86.88
30730;BME280;17476;48.458;7.928;2023-02-18T10:13:56;100903.00;;;13.47;86.78
30730;BME280;17476;48.458;7.928;2023-02-18T10:16:24;100905.16;;;13.52;86.35
30730;BME280;17476;48.458;7.928;2023-02-18T10:18:57;100908.31;;;13.55;85.70
30730;BME280;17476;48.458;7.928;2023-02-18T10:21:31;100908.97;;;13.57;85.03
30730;BME280;17476;48.458;7.928;2023-02-18T10:24:24;100922.66;;;13.69;84.30
30730;BME280;17476;48.458;7.928;2023-02-18T10:26:51;100927.84;;;13.61;84.78
30730;BME280;17476;48.458;7.928;2023-02-18T10:29:19;100928.38;;;13.64;85.51
30730;BME280;17476;48.458;7.928;2023-02-18T10:34:42;100939.88;;;13.72;84.98
30730;BME280;17476;48.458;7.928;2023-02-18T10:37:53;100945.34;;;13.78;84.04
30730;BME280;17476;48.458;7.928;2023-02-18T10:48:56;100942.44;;;13.98;79.21
30730;BME280;17476;48.458;7.928;2023-02-18T10:51:30;100940.16;;;14.11;79.04
30730;BME280;17476;48.458;7.928;2023-02-18T10:53:58;100935.09;;;14.26;77.45
30730;BME280;17476;48.458;7.928;2023-02-18T10:56:49;100935.72;;;14.28;76.94
30730;BME280;17476;48.458;7.928;2023-02-18T10:59:22;100935.72;;;14.36;76.75
30730;BME280;17476;48.458;7.928;2023-02-18T11:01:58;100932.13;;;14.29;77.07
30730;BME280;17476;48.458;7.928;2023-02-18T11:04:38;100928.19;;;14.33;76.38
30730;BME280;17476;48.458;7.928;2023-02-18T11:07:40;100921.44;;;14.38;76.31
30730;BME280;17476;48.458;7.928;2023-02-18T11:10:18;100913.03;;;14.35;76.97
30730;BME280;17476;48.458;7.928;2023-02-18T11:12:57;100902.38;;;14.36;76.47
30730;BME280;17476;48.458;7.928;2023-02-18T11:15:26;100900.56;;;14.37;76.20
30730;BME280;17476;48.458;7.928;2023-02-18T11:17:56;100899.06;;;14.42;76.38
30730;BME280;17476;48.458;7.928;2023-02-18T11:20:37;100902.84;;;14.40;75.69
30730;BME280;17476;48.458;7.928;2023-02-18T11:25:34;100890.03;;;14.45;76.95
30730;BME280;17476;48.458;7.928;2023-02-18T11:28:42;100894.31;;;14.54;76.61
30730;BME280;17476;48.458;7.928;2023-02-18T11:31:14;100878.19;;;14.65;77.95
30730;BME280;17476;48.458;7.928;2023-02-18T11:33:46;100887.06;;;14.72;76.66
30730;BME280;17476;48.458;7.928;2023-02-18T11:36:28;100874.22;;;14.78;75.61
30730;BME280;17476;48.458;7.928;2023-02-18T11:38:59;100874.84;;;14.88;74.95
30730;BME280;17476;48.458;7.928;2023-02-18T11:42:14;100859.69;;;14.90;74.98
30730;BME280;17476;48.458;7.928;2023-02-18T11:44:39;100865.28;;;14.95;75.14
30730;BME280;17476;48.458;7.928;2023-02-18T11:49:42;100857.34;;;15.11;75.21
30730;BME280;17476;48.458;7.928;2023-02-18T11:52:32;100858.59;;;15.23;73.55
30730;BME280;17476;48.458;7.928;2023-02-18T11:55:19;100858.09;;;15.28;73.13
30730;BME280;17476;48.458;7.928;2023-02-18T11:57:54;100848.19;;;15.30;73.29
30730;BME280;17476;48.458;7.928;2023-02-18T12:00:55;100844.72;;;15.38;71.91
30730;BME280;17476;48.458;7.928;2023-02-18T12:03:37;100829.22;;;15.35;72.66
30730;BME280;17476;48.458;7.928;2023-02-18T12:06:14;100833.50;;;15.36;72.95
30730;BME280;17476;48.458;7.928;2023-02-18T12:09:05;100829.72;;;15.38;73.17
30730;BME280;17476;48.458;7.928;2023-02-18T12:11:40;100835.97;;;15.37;72.24
30730;BME280;17476;48.458;7.928;2023-02-18T12:14:19;100833.31;;;15.37;73.00
30730;BME280;17476;48.458;7.928;2023-02-18T12:20:04;100825.22;;;15.47;74.41
30730;BME280;17476;48.458;7.928;2023-02-18T12:22:56;100826.84;;;15.48;73.74
30730;BME280;17476;48.458;7.928;2023-02-18T12:25:51;100817.63;;;15.52;74.10
30730;BME280;17476;48.458;7.928;2023-02-18T12:38:01;100813.44;;;15.89;70.76
30730;BME280;17476;48.458;7.928;2023-02-18T12:49:32;100825.03;;;16.02;68.34
30730;BME280;17476;48.458;7.928;2023-02-18T13:01:01;100803.19;;;15.94;67.84
30730;BME280;17476;48.458;7.928;2023-02-18T13:14:34;100807.19;;;16.04;66.80
30730;BME280;17476;48.458;7.928;2023-02-18T13:17:04;100800.72;;;15.92;68.00
30730;BME280;17476;48.458;7.928;2023-02-18T13:20:02;100793.44;;;15.94;66.58
30730;BME280;17476;48.458;7.928;2023-02-18T13:22:30;100785.22;;;15.89;66.75
30730;BME280;17476;48.458;7.928;2023-02-18T13:24:57;100777.19;;;15.82;66.73
30730;BME280;17476;48.458;7.928;2023-02-18T13:28:03;100780.84;;;15.81;67.27
30730;BME280;17476;48.458;7.928;2023-02-18T13:30:49;100772.94;;;15.81;67.85
30730;BME280;17476;48.458;7.928;2023-02-18T13:33:50;100773.41;;;15.85;66.68
30730;BME280;17476;48.458;7.928;2023-02-18T13:39:16;100768.06;;;15.70;68.18
30730;BME280;17476;48.458;7.928;2023-02-18T13:41:47;100777.69;;;15.63;68.34
30730;BME280;17476;48.458;7.928;2023-02-18T13:46:51;100775.38;;;15.60;67.74
30730;BME280;17476;48.458;7.928;2023-02-18T13:49:22;100777.53;;;15.56;66.94
30730;BME280;17476;48.458;7.928;2023-02-18T13:51:54;100778.34;;;15.57;66.44
30730;BME280;17476;48.458;7.928;2023-02-18T13:54:44;100765.41;;;15.47;66.35
30730;BME280;17476;48.458;7.928;2023-02-18T13:57:13;100765.41;;;15.47;66.57
30730;BME280;17476;48.458;7.928;2023-02-18T13:59:58;100755.50;;;15.49;66.60
30730;BME280;17476;48.458;7.928;2023-02-18T14:26:23;100734.53;;;15.33;63.84
30730;BME280;17476;48.458;7.928;2023-02-18T14:36:45;100732.09;;;15.23;63.79
30730;BME280;17476;48.458;7.928;2023-02-18T14:39:44;100739.19;;;15.23;63.36
30730;BME280;17476;48.458;7.928;2023-02-18T14:50:57;100729.00;;;15.20;63.19
30730;BME280;17476;48.458;7.928;2023-02-18T14:53:25;100736.72;;;15.21;63.60
30730;BME280;17476;48.458;7.928;2023-02-18T14:56:01;100733.78;;;15.24;63.96
30730;BME280;17476;48.458;7.928;2023-02-18T14:58:42;100726.38;;;15.20;64.62
30730;BME280;17476;48.458;7.928;2023-02-18T15:01:28;100723.91;;;15.18;63.70
30730;BME280;17476;48.458;7.928;2023-02-18T15:03:55;100722.78;;;15.13;63.79
30730;BME280;17476;48.458;7.928;2023-02-18T15:06:30;100715.06;;;15.11;64.00
30730;BME280;17476;48.458;7.928;2023-02-18T15:09:11;100722.63;;;15.14;63.96
30730;BME280;17476;48.458;7.928;2023-02-18T15:12:05;100715.06;;;15.11;63.51
30730;BME280;17476;48.458;7.928;2023-02-18T15:14:37;100718.69;;;15.10;nan
30730;BME280;17476;48.458;7.928;2023-02-18T15:17:09;100711.78;;;15.09;64.97
30730;BME280;17476;48.458;7.928;2023-02-18T15:19:50;100710.13;;;15.08;64.82
30730;BME280;17476;48.458;7.928;2023-02-18T15:22:22;100701.22;;;15.09;64.46
30730;BME280;17476;48.458;7.928;2023-02-18T15:24:51;100708.50;;;15.07;65.33
30730;BME280;17476;48.458;7.928;2023-02-18T15:27:28;100701.78;;;15.05;65.27
30730;BME280;17476;48.458;7.928;2023-02-18T15:30:28;100697.00;;;15.00;65.31
30730;BME280;17476;48.458;7.928;2023-02-18T15:32:59;100704.28;;;14.98;65.38
30730;BME280;17476;48.458;7.928;2023-02-18T15:35:30;100702.63;;;14.97;65.65